sensor_id;sensor_type;location;lat;lon;timestamp;P1;durP1;ratioP1;P2;durP2;ratioP2
70106;SDS011;57473;37.508;15.080;2023-04-03T00:01:08;11.05;;;4.18;;
70106;SDS011;57473;37.508;15.080;2023-04-03T00:03:36;11.85;;;4.40;;
70106;SDS011;57473;37.508;15.080;2023-04-03T00:06:04;15.13;;;4.78;;
70106;SDS011;57473;37.508;15.080;2023-04-03T00:08:33;13.18;;;4.35;;
70106;SDS011;57473;37.508;15.080;2023-04-03T00:11:01;15.90;;;4.20;;
70106;SDS011;57473;37.508;15.080;2023-04-03T00:13:29;10.55;;;3.88;;
70106;SDS011;57473;37.508;15.080;2023-04-03T00:15:57;10.35;;;3.90;;
70106;SDS011;57473;37.508;15.080;2023-04-03T00:18:24;13.98;;;4.20;;
70106;SDS011;57473;37.508;15.080;2023-04-03T00:20:51;14.68;;;4.60;;
70106;SDS011;57473;37.508;15.080;2023-04-03T00:23:18;13.88;;;4.10;;
70106;SDS011;57473;37.508;15.080;2023-04-03T00:25:46;11.98;;;4.75;;
70106;SDS011;57473;37.508;15.080;2023-04-03T00:28:13;10.13;;;3.97;;
70106;SDS011;57473;37.508;15.080;2023-04-03T00:30:41;16.45;;;4.57;;
70106;SDS011;57473;37.508;15.080;2023-04-03T00:33:10;13.05;;;4.68;;
70106;SDS011;57473;37.508;15.080;2023-04-03T00:35:39;11.18;;;4.40;;
70106;SDS011;57473;37.508;15.080;2023-04-03T00:38:07;11.05;;;3.75;;
70106;SDS011;57473;37.508;15.080;2023-04-03T00:40:35;11.85;;;3.80;;
70106;SDS011;57473;37.508;15.080;2023-04-03T00:43:25;11.45;;;3.70;;
70106;SDS011;57473;37.508;15.080;2023-04-03T00:45:56;7.63;;;3.30;;
70106;SDS011;57473;37.508;15.080;2023-04-03T00:48:32;8.70;;;3.60;;
70106;SDS011;57473;37.508;15.080;2023-04-03T00:51:03;10.40;;;3.30;;
70106;SDS011;57473;37.508;15.080;2023-04-03T00:53:35;7.00;;;2.92;;
70106;SDS011;57473;37.508;15.080;2023-04-03T00:56:10;9.55;;;3.85;;
70106;SDS011;57473;37.508;15.080;2023-04-03T00:58:42;7.65;;;3.22;;
70106;SDS011;57473;37.508;15.080;2023-04-03T01:01:16;8.65;;;3.67;;
70106;SDS011;57473;37.508;15.080;2023-04-03T01:03:47;8.15;;;3.33;;
70106;SDS011;57473;37.508;15.080;2023-04-03T01:06:15;8.48;;;3.00;;
70106;SDS011;57473;37.508;15.080;2023-04-03T01:08:48;8.90;;;3.33;;
70106;SDS011;57473;37.508;15.080;2023-04-03T01:11:17;9.15;;;3.08;;
70106;SDS011;57473;37.508;15.080;2023-04-03T01:13:48;7.72;;;2.95;;
70106;SDS011;57473;37.508;15.080;2023-04-03T01:16:16;9.85;;;3.75;;
70106;SDS011;57473;37.508;15.080;2023-04-03T01:18:43;9.23;;;3.50;;
70106;SDS011;57473;37.508;15.080;2023-04-03T01:24:37;8.85;;;3.38;;
70106;SDS011;57473;37.508;15.080;2023-04-03T01:26:57;10.27;;;3.30;;
70106;SDS011;57473;37.508;15.080;2023-04-03T01:29:25;5.60;;;3.15;;
70106;SDS011;57473;37.508;15.080;2023-04-03T01:31:56;8.85;;;3.13;;
70106;SDS011;57473;37.508;15.080;2023-04-03T01:36:53;6.60;;;2.50;;
70106;SDS011;57473;37.508;15.080;2023-04-03T01:39:21;5.68;;;2.38;;
70106;SDS011;57473;37.508;15.080;2023-04-03T01:41:49;4.70;;;2.17;;
70106;SDS011;57473;37.508;15.080;2023-04-03T01:44:24;5.53;;;2.17;;
70106;SDS011;57473;37.508;15.080;2023-04-03T01:46:51;5.45;;;2.10;;
70106;SDS011;57473;37.508;15.080;2023-04-03T01:49:20;6.22;;;1.85;;
70106;SDS011;57473;37.508;15.080;2023-04-03T01:51:47;6.43;;;1.85;;
70106;SDS011;57473;37.508;15.080;2023-04-03T01:54:14;4.32;;;2.00;;
70106;SDS011;57473;37.508;15.080;2023-04-03T01:56:43;6.13;;;1.92;;
70106;SDS011;57473;37.508;15.080;2023-04-03T01:59:10;4.90;;;1.90;;
70106;SDS011;57473;37.508;15.080;2023-04-03T02:01:37;4.43;;;1.73;;
70106;SDS011;57473;37.508;15.080;2023-04-03T02:04:05;6.25;;;1.70;;
70106;SDS011;57473;37.508;15.080;2023-04-03T02:06:33;2.95;;;1.77;;
70106;SDS011;57473;37.508;15.080;2023-04-03T02:09:00;4.95;;;1.95;;
70106;SDS011;57473;37.508;15.080;2023-04-03T02:11:29;3.92;;;1.73;;
70106;SDS011;57473;37.508;15.080;2023-04-03T02:13:56;3.80;;;2.08;;
70106;SDS011;57473;37.508;15.080;2023-04-03T02:16:24;4.68;;;2.10;;
70106;SDS011;57473;37.508;15.080;2023-04-03T02:18:51;5.88;;;2.13;;
70106;SDS011;57473;37.508;15.080;2023-04-03T02:21:18;5.35;;;1.90;;
70106;SDS011;57473;37.508;15.080;2023-04-03T02:23:47;4.00;;;2.20;;
70106;SDS011;57473;37.508;15.080;2023-04-03T02:26:14;4.75;;;2.47;;
70106;SDS011;57473;37.508;15.080;2023-04-03T02:28:44;4.10;;;2.08;;
70106;SDS011;57473;37.508;15.080;2023-04-03T02:31:12;8.23;;;2.60;;
70106;SDS011;57473;37.508;15.080;2023-04-03T02:33:41;5.82;;;2.45;;
70106;SDS011;57473;37.508;15.080;2023-04-03T02:36:11;7.35;;;2.97;;
70106;SDS011;57473;37.508;15.080;2023-04-03T02:38:41;7.75;;;2.88;;
70106;SDS011;57473;37.508;15.080;2023-04-03T02:41:10;9.05;;;2.80;;
70106;SDS011;57473;37.508;15.080;2023-04-03T02:43:38;5.78;;;2.83;;
70106;SDS011;57473;37.508;15.080;2023-04-03T02:46:06;4.97;;;2.55;;
70106;SDS011;57473;37.508;15.080;2023-04-03T02:48:34;9.00;;;3.05;;
70106;SDS011;57473;37.508;15.080;2023-04-03T02:51:02;10.38;;;3.53;;
70106;SDS011;57473;37.508;15.080;2023-04-03T02:53:29;8.73;;;2.80;;
70106;SDS011;57473;37.508;15.080;2023-04-03T02:55:58;6.30;;;2.95;;
70106;SDS011;57473;37.508;15.080;2023-04-03T02:58:25;5.30;;;2.75;;
70106;SDS011;57473;37.508;15.080;2023-04-03T03:00:56;6.32;;;2.80;;
70106;SDS011;57473;37.508;15.080;2023-04-03T03:03:23;7.18;;;2.85;;
70106;SDS011;57473;37.508;15.080;2023-04-03T03:06:00;7.32;;;2.90;;
70106;SDS011;57473;37.508;15.080;2023-04-03T03:08:32;7.33;;;2.97;;
70106;SDS011;57473;37.508;15.080;2023-04-03T03:11:00;7.00;;;2.35;;
70106;SDS011;57473;37.508;15.080;2023-04-03T03:13:28;6.28;;;2.63;;
70106;SDS011;57473;37.508;15.080;2023-04-03T03:15:55;6.85;;;3.17;;
70106;SDS011;57473;37.508;15.080;2023-04-03T03:18:23;8.57;;;2.97;;
70106;SDS011;57473;37.508;15.080;2023-04-03T03:20:54;5.88;;;2.65;;
70106;SDS011;57473;37.508;15.080;2023-04-03T03:23:24;5.50;;;2.65;;
70106;SDS011;57473;37.508;15.080;2023-04-03T03:25:56;6.63;;;2.45;;
70106;SDS011;57473;37.508;15.080;2023-04-03T03:28:28;5.53;;;2.63;;
70106;SDS011;57473;37.508;15.080;2023-04-03T03:30:56;5.45;;;2.63;;
70106;SDS011;57473;37.508;15.080;2023-04-03T03:33:24;7.35;;;2.88;;
70106;SDS011;57473;37.508;15.080;2023-04-03T03:35:53;3.58;;;2.40;;
70106;SDS011;57473;37.508;15.080;2023-04-03T03:38:21;3.70;;;2.08;;
70106;SDS011;57473;37.508;15.080;2023-04-03T03:40:49;4.63;;;2.50;;
70106;SDS011;57473;37.508;15.080;2023-04-03T03:43:19;5.00;;;2.38;;
70106;SDS011;57473;37.508;15.080;2023-04-03T03:45:52;4.55;;;2.30;;
70106;SDS011;57473;37.508;15.080;2023-04-03T03:48:23;5.20;;;2.38;;
70106;SDS011;57473;37.508;15.080;2023-04-03T03:50:50;6.30;;;2.13;;
70106;SDS011;57473;37.508;15.080;2023-04-03T03:53:22;6.55;;;2.28;;
70106;SDS011;57473;37.508;15.080;2023-04-03T03:55:52;4.70;;;2.35;;
70106;SDS011;57473;37.508;15.080;2023-04-03T03:58:22;7.32;;;2.60;;
70106;SDS011;57473;37.508;15.080;2023-04-03T04:00:49;5.35;;;2.38;;
70106;SDS011;57473;37.508;15.080;2023-04-03T04:03:17;5.57;;;2.28;;
70106;SDS011;57473;37.508;15.080;2023-04-03T04:05:47;4.57;;;2.30;;
70106;SDS011;57473;37.508;15.080;2023-04-03T04:08:15;3.15;;;2.20;;
70106;SDS011;57473;37.508;15.080;2023-04-03T04:10:44;4.07;;;2.38;;
70106;SDS011;57473;37.508;15.080;2023-04-03T04:13:13;5.95;;;2.40;;
70106;SDS011;57473;37.508;15.080;2023-04-03T04:15:41;5.53;;;2.30;;
70106;SDS011;57473;37.508;15.080;2023-04-03T04:18:09;5.20;;;2.30;;
70106;SDS011;57473;37.508;15.080;2023-04-03T04:20:37;5.43;;;2.47;;
70106;SDS011;57473;37.508;15.080;2023-04-03T04:23:04;4.55;;;2.08;;
70106;SDS011;57473;37.508;15.080;2023-04-03T04:25:32;4.65;;;2.40;;
70106;SDS011;57473;37.508;15.080;2023-04-03T04:27:59;3.72;;;2.10;;
70106;SDS011;57473;37.508;15.080;2023-04-03T04:30:26;3.45;;;1.90;;
70106;SDS011;57473;37.508;15.080;2023-04-03T04:32:56;3.22;;;2.10;;
70106;SDS011;57473;37.508;15.080;2023-04-03T04:35:24;6.03;;;2.85;;
70106;SDS011;57473;37.508;15.080;2023-04-03T04:37:51;5.88;;;2.20;;
70106;SDS011;57473;37.508;15.080;2023-04-03T04:40:19;4.53;;;2.20;;
70106;SDS011;57473;37.508;15.080;2023-04-03T04:42:47;5.90;;;2.17;;
70106;SDS011;57473;37.508;15.080;2023-04-03T04:45:15;6.45;;;2.60;;
70106;SDS011;57473;37.508;15.080;2023-04-03T04:47:44;6.90;;;2.90;;
70106;SDS011;57473;37.508;15.080;2023-04-03T04:50:12;5.65;;;2.58;;
70106;SDS011;57473;37.508;15.080;2023-04-03T04:52:39;5.05;;;2.42;;
70106;SDS011;57473;37.508;15.080;2023-04-03T04:55:08;5.47;;;2.15;;
70106;SDS011;57473;37.508;15.080;2023-04-03T04:57:35;4.28;;;2.28;;
70106;SDS011;57473;37.508;15.080;2023-04-03T05:00:06;5.05;;;2.40;;
70106;SDS011;57473;37.508;15.080;2023-04-03T05:02:33;4.55;;;2.22;;
70106;SDS011;57473;37.508;15.080;2023-04-03T05:05:01;7.03;;;2.80;;
70106;SDS011;57473;37.508;15.080;2023-04-03T05:07:31;4.78;;;2.97;;
70106;SDS011;57473;37.508;15.080;2023-04-03T05:10:00;5.20;;;2.42;;
70106;SDS011;57473;37.508;15.080;2023-04-03T05:12:28;6.07;;;3.10;;
70106;SDS011;57473;37.508;15.080;2023-04-03T05:14:59;41.33;;;17.58;;
70106;SDS011;57473;37.508;15.080;2023-04-03T05:17:29;18.55;;;8.80;;
70106;SDS011;57473;37.508;15.080;2023-04-03T05:19:57;8.05;;;3.90;;
70106;SDS011;57473;37.508;15.080;2023-04-03T05:22:26;12.60;;;6.35;;
70106;SDS011;57473;37.508;15.080;2023-04-03T05:24:59;11.55;;;6.28;;
70106;SDS011;57473;37.508;15.080;2023-04-03T05:27:27;9.63;;;5.28;;
70106;SDS011;57473;37.508;15.080;2023-04-03T05:29:57;12.02;;;7.68;;
70106;SDS011;57473;37.508;15.080;2023-04-03T05:32:24;13.80;;;7.28;;
70106;SDS011;57473;37.508;15.080;2023-04-03T05:35:09;15.38;;;7.63;;
70106;SDS011;57473;37.508;15.080;2023-04-03T05:37:39;13.73;;;8.40;;
70106;SDS011;57473;37.508;15.080;2023-04-03T05:40:07;21.77;;;10.95;;
70106;SDS011;57473;37.508;15.080;2023-04-03T05:42:36;51.88;;;19.73;;
70106;SDS011;57473;37.508;15.080;2023-04-03T05:45:04;14.23;;;7.03;;
70106;SDS011;57473;37.508;15.080;2023-04-03T05:47:32;12.27;;;6.68;;
70106;SDS011;57473;37.508;15.080;2023-04-03T05:50:00;12.13;;;7.03;;
70106;SDS011;57473;37.508;15.080;2023-04-03T05:52:28;15.68;;;8.15;;
70106;SDS011;57473;37.508;15.080;2023-04-03T05:55:00;10.80;;;6.68;;
70106;SDS011;57473;37.508;15.080;2023-04-03T05:57:29;10.00;;;5.60;;
70106;SDS011;57473;37.508;15.080;2023-04-03T05:59:57;7.88;;;4.50;;
70106;SDS011;57473;37.508;15.080;2023-04-03T06:02:25;8.93;;;3.58;;
70106;SDS011;57473;37.508;15.080;2023-04-03T06:04:53;7.53;;;3.28;;
70106;SDS011;57473;37.508;15.080;2023-04-03T06:07:21;7.47;;;3.40;;
70106;SDS011;57473;37.508;15.080;2023-04-03T06:09:50;6.90;;;3.72;;
70106;SDS011;57473;37.508;15.080;2023-04-03T06:12:18;6.85;;;3.40;;
70106;SDS011;57473;37.508;15.080;2023-04-03T06:14:46;5.95;;;3.60;;
70106;SDS011;57473;37.508;15.080;2023-04-03T06:17:15;8.27;;;4.10;;
70106;SDS011;57473;37.508;15.080;2023-04-03T06:19:44;9.27;;;4.93;;
70106;SDS011;57473;37.508;15.080;2023-04-03T06:22:12;11.32;;;5.88;;
70106;SDS011;57473;37.508;15.080;2023-04-03T06:24:40;9.68;;;4.97;;
70106;SDS011;57473;37.508;15.080;2023-04-03T06:27:08;10.93;;;5.38;;
70106;SDS011;57473;37.508;15.080;2023-04-03T06:29:37;9.05;;;4.60;;
70106;SDS011;57473;37.508;15.080;2023-04-03T06:32:04;9.93;;;5.93;;
70106;SDS011;57473;37.508;15.080;2023-04-03T06:34:32;7.70;;;4.93;;
70106;SDS011;57473;37.508;15.080;2023-04-03T06:37:00;9.07;;;5.05;;
70106;SDS011;57473;37.508;15.080;2023-04-03T06:39:27;6.22;;;4.82;;
70106;SDS011;57473;37.508;15.080;2023-04-03T06:41:54;11.85;;;7.38;;
70106;SDS011;57473;37.508;15.080;2023-04-03T06:44:31;7.28;;;4.60;;
70106;SDS011;57473;37.508;15.080;2023-04-03T06:47:01;16.73;;;7.00;;
70106;SDS011;57473;37.508;15.080;2023-04-03T06:49:28;6.95;;;4.60;;
70106;SDS011;57473;37.508;15.080;2023-04-03T06:51:55;7.90;;;4.20;;
70106;SDS011;57473;37.508;15.080;2023-04-03T06:54:25;8.80;;;5.13;;
70106;SDS011;57473;37.508;15.080;2023-04-03T06:56:52;6.85;;;3.95;;
70106;SDS011;57473;37.508;15.080;2023-04-03T06:59:19;9.88;;;3.72;;
70106;SDS011;57473;37.508;15.080;2023-04-03T07:01:46;5.13;;;3.60;;
70106;SDS011;57473;37.508;15.080;2023-04-03T07:04:14;10.15;;;6.45;;
70106;SDS011;57473;37.508;15.080;2023-04-03T07:06:42;4.75;;;2.75;;
70106;SDS011;57473;37.508;15.080;2023-04-03T07:09:09;11.70;;;8.20;;
70106;SDS011;57473;37.508;15.080;2023-04-03T07:11:37;8.35;;;4.78;;
70106;SDS011;57473;37.508;15.080;2023-04-03T07:14:04;16.92;;;10.35;;
70106;SDS011;57473;37.508;15.080;2023-04-03T07:16:34;15.82;;;9.77;;
70106;SDS011;57473;37.508;15.080;2023-04-03T07:19:04;5.97;;;3.70;;
70106;SDS011;57473;37.508;15.080;2023-04-03T07:21:31;8.10;;;5.28;;
70106;SDS011;57473;37.508;15.080;2023-04-03T07:23:59;6.68;;;2.83;;
70106;SDS011;57473;37.508;15.080;2023-04-03T07:26:27;7.78;;;3.70;;
70106;SDS011;57473;37.508;15.080;2023-04-03T07:28:54;4.95;;;2.85;;
70106;SDS011;57473;37.508;15.080;2023-04-03T07:31:21;5.97;;;2.92;;
70106;SDS011;57473;37.508;15.080;2023-04-03T07:33:49;8.68;;;5.07;;
70106;SDS011;57473;37.508;15.080;2023-04-03T07:36:17;7.30;;;3.20;;
70106;SDS011;57473;37.508;15.080;2023-04-03T07:38:47;4.13;;;1.80;;
70106;SDS011;57473;37.508;15.080;2023-04-03T07:41:15;25.65;;;8.07;;
70106;SDS011;57473;37.508;15.080;2023-04-03T07:43:44;22.42;;;12.02;;
70106;SDS011;57473;37.508;15.080;2023-04-03T07:46:13;10.63;;;4.22;;
70106;SDS011;57473;37.508;15.080;2023-04-03T07:48:40;7.13;;;2.72;;
70106;SDS011;57473;37.508;15.080;2023-04-03T07:51:07;7.88;;;4.38;;
70106;SDS011;57473;37.508;15.080;2023-04-03T07:53:35;2.28;;;1.30;;
70106;SDS011;57473;37.508;15.080;2023-04-03T07:56:02;6.75;;;4.03;;
70106;SDS011;57473;37.508;15.080;2023-04-03T07:58:29;2.47;;;1.00;;
70106;SDS011;57473;37.508;15.080;2023-04-03T08:00:57;3.65;;;1.92;;
70106;SDS011;57473;37.508;15.080;2023-04-03T08:03:24;6.97;;;4.25;;
70106;SDS011;57473;37.508;15.080;2023-04-03T08:05:51;3.10;;;1.95;;
70106;SDS011;57473;37.508;15.080;2023-04-03T08:08:21;3.63;;;1.40;;
70106;SDS011;57473;37.508;15.080;2023-04-03T08:10:52;3.38;;;1.50;;
70106;SDS011;57473;37.508;15.080;2023-04-03T08:13:21;5.60;;;2.13;;
70106;SDS011;57473;37.508;15.080;2023-04-03T08:15:49;2.58;;;1.00;;
70106;SDS011;57473;37.508;15.080;2023-04-03T08:18:17;4.25;;;2.10;;
70106;SDS011;57473;37.508;15.080;2023-04-03T08:20:48;4.82;;;2.83;;
70106;SDS011;57473;37.508;15.080;2023-04-03T08:23:15;2.92;;;1.90;;
70106;SDS011;57473;37.508;15.080;2023-04-03T08:25:45;5.95;;;4.35;;
70106;SDS011;57473;37.508;15.080;2023-04-03T08:28:12;6.18;;;2.17;;
70106;SDS011;57473;37.508;15.080;2023-04-03T08:30:40;17.52;;;2.70;;
70106;SDS011;57473;37.508;15.080;2023-04-03T08:33:09;4.47;;;2.75;;
70106;SDS011;57473;37.508;15.080;2023-04-03T08:35:40;5.25;;;2.15;;
70106;SDS011;57473;37.508;15.080;2023-04-03T08:38:09;7.28;;;2.05;;
70106;SDS011;57473;37.508;15.080;2023-04-03T08:40:37;5.10;;;2.83;;
70106;SDS011;57473;37.508;15.080;2023-04-03T08:43:30;3.78;;;1.30;;
70106;SDS011;57473;37.508;15.080;2023-04-03T08:46:06;2.90;;;1.65;;
70106;SDS011;57473;37.508;15.080;2023-04-03T08:48:41;3.75;;;0.90;;
70106;SDS011;57473;37.508;15.080;2023-04-03T08:51:13;3.05;;;0.80;;
70106;SDS011;57473;37.508;15.080;2023-04-03T08:53:45;1.60;;;0.80;;
70106;SDS011;57473;37.508;15.080;2023-04-03T08:56:23;3.13;;;1.10;;
70106;SDS011;57473;37.508;15.080;2023-04-03T08:59:03;1.85;;;1.10;;
70106;SDS011;57473;37.508;15.080;2023-04-03T09:01:38;3.55;;;1.10;;
70106;SDS011;57473;37.508;15.080;2023-04-03T09:04:11;1.60;;;0.95;;
70106;SDS011;57473;37.508;15.080;2023-04-03T09:06:41;1.70;;;1.00;;
70106;SDS011;57473;37.508;15.080;2023-04-03T09:14:43;2.15;;;1.60;;
70106;SDS011;57473;37.508;15.080;2023-04-03T09:22:48;2.85;;;1.27;;
70106;SDS011;57473;37.508;15.080;2023-04-03T09:25:31;2.38;;;1.17;;
70106;SDS011;57473;37.508;15.080;2023-04-03T09:28:02;4.10;;;1.73;;
70106;SDS011;57473;37.508;15.080;2023-04-03T09:30:36;2.10;;;1.13;;
70106;SDS011;57473;37.508;15.080;2023-04-03T09:33:05;6.65;;;2.88;;
70106;SDS011;57473;37.508;15.080;2023-04-03T09:35:37;3.08;;;1.50;;
70106;SDS011;57473;37.508;15.080;2023-04-03T09:38:15;3.13;;;1.17;;
70106;SDS011;57473;37.508;15.080;2023-04-03T09:40:45;2.15;;;1.40;;
70106;SDS011;57473;37.508;15.080;2023-04-03T09:43:25;4.32;;;1.30;;
70106;SDS011;57473;37.508;15.080;2023-04-03T09:45:55;2.78;;;1.38;;
70106;SDS011;57473;37.508;15.080;2023-04-03T09:48:55;3.95;;;1.30;;
70106;SDS011;57473;37.508;15.080;2023-04-03T09:51:34;2.35;;;1.30;;
70106;SDS011;57473;37.508;15.080;2023-04-03T09:54:23;3.58;;;1.70;;
70106;SDS011;57473;37.508;15.080;2023-04-03T09:57:08;3.10;;;1.40;;
70106;SDS011;57473;37.508;15.080;2023-04-03T09:59:43;3.33;;;1.60;;
70106;SDS011;57473;37.508;15.080;2023-04-03T10:02:30;2.53;;;1.25;;
70106;SDS011;57473;37.508;15.080;2023-04-03T10:05:05;2.85;;;1.33;;
70106;SDS011;57473;37.508;15.080;2023-04-03T10:10:40;1.92;;;0.88;;
70106;SDS011;57473;37.508;15.080;2023-04-03T10:13:27;3.65;;;1.00;;
70106;SDS011;57473;37.508;15.080;2023-04-03T10:15:59;1.30;;;0.90;;
70106;SDS011;57473;37.508;15.080;2023-04-03T10:26:57;3.33;;;1.50;;
70106;SDS011;57473;37.508;15.080;2023-04-03T10:33:01;4.82;;;1.70;;
70106;SDS011;57473;37.508;15.080;2023-04-03T10:41:17;8.38;;;3.42;;
70106;SDS011;57473;37.508;15.080;2023-04-03T10:46:49;23.92;;;12.07;;
70106;SDS011;57473;37.508;15.080;2023-04-03T10:55:33;7.13;;;4.15;;
70106;SDS011;57473;37.508;15.080;2023-04-03T10:58:29;7.90;;;4.43;;
70106;SDS011;57473;37.508;15.080;2023-04-03T11:01:04;6.10;;;4.38;;
70106;SDS011;57473;37.508;15.080;2023-04-03T11:03:36;5.32;;;3.72;;
70106;SDS011;57473;37.508;15.080;2023-04-03T11:06:09;7.00;;;3.78;;
70106;SDS011;57473;37.508;15.080;2023-04-03T11:08:44;4.32;;;2.72;;
70106;SDS011;57473;37.508;15.080;2023-04-03T11:11:22;4.78;;;3.10;;
70106;SDS011;57473;37.508;15.080;2023-04-03T11:16:51;6.68;;;3.05;;
70106;SDS011;57473;37.508;15.080;2023-04-03T11:19:34;5.88;;;3.20;;
70106;SDS011;57473;37.508;15.080;2023-04-03T11:24:57;4.57;;;3.03;;
70106;SDS011;57473;37.508;15.080;2023-04-03T11:27:56;8.32;;;3.20;;
70106;SDS011;57473;37.508;15.080;2023-04-03T11:35:54;3.85;;;1.88;;
70106;SDS011;57473;37.508;15.080;2023-04-03T11:38:30;3.83;;;1.98;;
70106;SDS011;57473;37.508;15.080;2023-04-03T11:41:03;6.05;;;2.20;;
70106;SDS011;57473;37.508;15.080;2023-04-03T11:43:33;4.75;;;2.30;;
70106;SDS011;57473;37.508;15.080;2023-04-03T11:46:06;4.32;;;2.03;;
70106;SDS011;57473;37.508;15.080;2023-04-03T11:53:43;3.78;;;1.88;;
70106;SDS011;57473;37.508;15.080;2023-04-03T12:01:49;3.65;;;1.80;;
70106;SDS011;57473;37.508;15.080;2023-04-03T12:04:21;4.30;;;1.60;;
70106;SDS011;57473;37.508;15.080;2023-04-03T12:06:52;3.33;;;1.58;;
70106;SDS011;57473;37.508;15.080;2023-04-03T12:21:11;5.10;;;2.40;;
70106;SDS011;57473;37.508;15.080;2023-04-03T12:23:57;3.85;;;2.20;;
70106;SDS011;57473;37.508;15.080;2023-04-03T12:45:20;4.55;;;1.92;;
70106;SDS011;57473;37.508;15.080;2023-04-03T12:47:49;4.47;;;2.45;;
70106;SDS011;57473;37.508;15.080;2023-04-03T12:50:29;4.00;;;2.03;;
70106;SDS011;57473;37.508;15.080;2023-04-03T12:52:59;3.67;;;1.85;;
70106;SDS011;57473;37.508;15.080;2023-04-03T12:55:38;6.03;;;1.65;;
70106;SDS011;57473;37.508;15.080;2023-04-03T12:58:16;9.38;;;2.10;;
70106;SDS011;57473;37.508;15.080;2023-04-03T13:01:13;16.35;;;3.13;;
70106;SDS011;57473;37.508;15.080;2023-04-03T13:03:45;6.90;;;3.95;;
70106;SDS011;57473;37.508;15.080;2023-04-03T13:06:26;4.47;;;2.40;;
70106;SDS011;57473;37.508;15.080;2023-04-03T13:11:58;3.08;;;1.80;;
70106;SDS011;57473;37.508;15.080;2023-04-03T13:14:28;3.65;;;2.70;;
70106;SDS011;57473;37.508;15.080;2023-04-03T13:16:56;3.75;;;1.77;;
70106;SDS011;57473;37.508;15.080;2023-04-03T13:19:27;3.58;;;1.60;;
70106;SDS011;57473;37.508;15.080;2023-04-03T13:21:58;6.95;;;3.03;;
70106;SDS011;57473;37.508;15.080;2023-04-03T13:24:30;3.47;;;1.50;;
70106;SDS011;57473;37.508;15.080;2023-04-03T13:27:02;3.00;;;1.52;;
70106;SDS011;57473;37.508;15.080;2023-04-03T13:29:33;6.93;;;2.88;;
70106;SDS011;57473;37.508;15.080;2023-04-03T13:32:02;5.93;;;3.17;;
70106;SDS011;57473;37.508;15.080;2023-04-03T13:34:38;3.95;;;1.60;;
70106;SDS011;57473;37.508;15.080;2023-04-03T13:37:29;2.63;;;0.93;;
70106;SDS011;57473;37.508;15.080;2023-04-03T13:42:36;4.93;;;1.80;;
70106;SDS011;57473;37.508;15.080;2023-04-03T13:45:09;1.70;;;1.00;;
70106;SDS011;57473;37.508;15.080;2023-04-03T13:47:41;3.80;;;1.00;;
70106;SDS011;57473;37.508;15.080;2023-04-03T13:52:54;2.30;;;0.90;;
70106;SDS011;57473;37.508;15.080;2023-04-03T13:55:29;1.23;;;0.70;;
70106;SDS011;57473;37.508;15.080;2023-04-03T13:58:19;6.60;;;1.30;;
70106;SDS011;57473;37.508;15.080;2023-04-03T14:03:25;8.90;;;1.90;;
70106;SDS011;57473;37.508;15.080;2023-04-03T14:05:56;4.13;;;1.83;;
70106;SDS011;57473;37.508;15.080;2023-04-03T14:08:25;2.00;;;1.00;;
70106;SDS011;57473;37.508;15.080;2023-04-03T14:11:13;2.90;;;1.17;;
70106;SDS011;57473;37.508;15.080;2023-04-03T14:13:50;1.80;;;1.00;;
70106;SDS011;57473;37.508;15.080;2023-04-03T14:16:19;1.38;;;0.82;;
70106;SDS011;57473;37.508;15.080;2023-04-03T14:18:48;1.83;;;0.93;;
70106;SDS011;57473;37.508;15.080;2023-04-03T14:21:18;1.45;;;1.00;;
70106;SDS011;57473;37.508;15.080;2023-04-03T14:23:46;4.43;;;1.05;;
70106;SDS011;57473;37.508;15.080;2023-04-03T14:26:15;2.05;;;0.80;;
70106;SDS011;57473;37.508;15.080;2023-04-03T14:28:47;2.75;;;1.10;;
70106;SDS011;57473;37.508;15.080;2023-04-03T14:31:18;2.33;;;0.83;;
70106;SDS011;57473;37.508;15.080;2023-04-03T14:33:47;1.25;;;0.70;;
70106;SDS011;57473;37.508;15.080;2023-04-03T14:36:16;1.40;;;0.80;;
70106;SDS011;57473;37.508;15.080;2023-04-03T14:38:46;2.47;;;0.80;;
70106;SDS011;57473;37.508;15.080;2023-04-03T14:41:16;2.15;;;0.75;;
70106;SDS011;57473;37.508;15.080;2023-04-03T14:43:46;1.73;;;0.83;;
70106;SDS011;57473;37.508;15.080;2023-04-03T14:46:16;1.60;;;1.10;;
70106;SDS011;57473;37.508;15.080;2023-04-03T14:48:46;2.95;;;1.85;;
70106;SDS011;57473;37.508;15.080;2023-04-03T14:51:14;1.48;;;0.90;;
70106;SDS011;57473;37.508;15.080;2023-04-03T14:53:42;1.42;;;0.73;;
70106;SDS011;57473;37.508;15.080;2023-04-03T14:56:21;1.63;;;0.70;;
70106;SDS011;57473;37.508;15.080;2023-04-03T14:58:54;2.00;;;0.90;;
70106;SDS011;57473;37.508;15.080;2023-04-03T15:01:24;1.73;;;1.08;;
70106;SDS011;57473;37.508;15.080;2023-04-03T15:03:52;2.97;;;1.02;;
70106;SDS011;57473;37.508;15.080;2023-04-03T15:06:20;3.35;;;0.90;;
70106;SDS011;57473;37.508;15.080;2023-04-03T15:08:48;2.20;;;0.90;;
70106;SDS011;57473;37.508;15.080;2023-04-03T15:11:16;1.70;;;0.90;;
70106;SDS011;57473;37.508;15.080;2023-04-03T15:13:43;2.20;;;0.82;;
70106;SDS011;57473;37.508;15.080;2023-04-03T15:16:15;2.75;;;1.55;;
70106;SDS011;57473;37.508;15.080;2023-04-03T15:18:45;2.90;;;1.35;;
70106;SDS011;57473;37.508;15.080;2023-04-03T15:21:13;2.85;;;0.90;;
70106;SDS011;57473;37.508;15.080;2023-04-03T15:23:40;5.22;;;1.40;;
70106;SDS011;57473;37.508;15.080;2023-04-03T15:26:09;1.25;;;0.82;;
70106;SDS011;57473;37.508;15.080;2023-04-03T15:28:40;3.65;;;1.00;;
70106;SDS011;57473;37.508;15.080;2023-04-03T15:31:10;2.45;;;1.08;;
70106;SDS011;57473;37.508;15.080;2023-04-03T15:33:37;3.30;;;3.00;;
70106;SDS011;57473;37.508;15.080;2023-04-03T15:36:05;2.33;;;1.48;;
70106;SDS011;57473;37.508;15.080;2023-04-03T15:38:53;3.90;;;2.03;;
70106;SDS011;57473;37.508;15.080;2023-04-03T15:41:20;4.07;;;1.83;;
70106;SDS011;57473;37.508;15.080;2023-04-03T15:43:47;3.10;;;1.30;;
70106;SDS011;57473;37.508;15.080;2023-04-03T15:46:15;1.95;;;1.50;;
70106;SDS011;57473;37.508;15.080;2023-04-03T15:48:42;3.42;;;1.30;;
70106;SDS011;57473;37.508;15.080;2023-04-03T15:51:11;3.15;;;1.17;;
70106;SDS011;57473;37.508;15.080;2023-04-03T15:53:38;4.10;;;1.70;;
70106;SDS011;57473;37.508;15.080;2023-04-03T15:56:06;2.55;;;1.33;;
70106;SDS011;57473;37.508;15.080;2023-04-03T15:58:36;2.90;;;1.50;;
70106;SDS011;57473;37.508;15.080;2023-04-03T16:01:03;1.95;;;1.10;;
70106;SDS011;57473;37.508;15.080;2023-04-03T16:03:34;5.93;;;1.60;;
70106;SDS011;57473;37.508;15.080;2023-04-03T16:06:02;2.00;;;1.23;;
70106;SDS011;57473;37.508;15.080;2023-04-03T16:08:29;2.30;;;1.20;;
70106;SDS011;57473;37.508;15.080;2023-04-03T16:10:57;2.75;;;1.60;;
70106;SDS011;57473;37.508;15.080;2023-04-03T16:13:24;3.00;;;1.30;;
70106;SDS011;57473;37.508;15.080;2023-04-03T16:15:52;4.05;;;1.63;;
70106;SDS011;57473;37.508;15.080;2023-04-03T16:18:21;2.75;;;1.20;;
70106;SDS011;57473;37.508;15.080;2023-04-03T16:20:48;1.58;;;1.08;;
70106;SDS011;57473;37.508;15.080;2023-04-03T16:23:16;1.70;;;1.10;;
70106;SDS011;57473;37.508;15.080;2023-04-03T16:28:17;1.98;;;1.50;;
70106;SDS011;57473;37.508;15.080;2023-04-03T16:30:45;2.20;;;1.30;;
70106;SDS011;57473;37.508;15.080;2023-04-03T16:33:14;6.15;;;2.15;;
70106;SDS011;57473;37.508;15.080;2023-04-03T16:35:41;4.50;;;1.00;;
70106;SDS011;57473;37.508;15.080;2023-04-03T16:38:10;2.35;;;1.20;;
70106;SDS011;57473;37.508;15.080;2023-04-03T16:40:37;3.40;;;1.45;;
70106;SDS011;57473;37.508;15.080;2023-04-03T16:43:05;3.83;;;2.00;;
70106;SDS011;57473;37.508;15.080;2023-04-03T16:45:32;3.92;;;1.65;;